createdAt,value
2022-09-30T00:01:52.132Z,26.77
2022-09-30T00:04:24.447Z,25.83
2022-09-30T00:06:53.387Z,26.07
2022-09-30T00:09:21.747Z,25.60
2022-09-30T00:11:48.815Z,26.97
2022-09-30T00:14:20.905Z,24.90
2022-09-30T00:16:48.549Z,25.50
2022-09-30T00:19:15.802Z,25.33
2022-09-30T00:21:43.167Z,26.97
2022-09-30T00:24:10.129Z,24.37
2022-09-30T00:26:37.098Z,26.43
2022-09-30T00:29:05.425Z,26.40
2022-09-30T00:31:35.066Z,25.87
2022-09-30T00:34:09.034Z,27.70
2022-09-30T00:36:44.184Z,28.23
2022-09-30T00:39:24.191Z,27.20
2022-09-30T00:41:56.393Z,27.50
2022-09-30T00:44:55.341Z,27.67
2022-09-30T00:47:43.602Z,26.37
2022-09-30T00:50:19.465Z,26.13
2022-09-30T00:53:10.523Z,26.80
2022-09-30T00:55:46.463Z,27.23
2022-09-30T00:58:21.716Z,26.37
2022-09-30T01:00:52.000Z,26.77
2022-09-30T01:03:22.712Z,25.13
2022-09-30T01:05:51.925Z,24.50
2022-09-30T01:08:20.937Z,25.20
2022-09-30T01:10:47.838Z,24.07
2022-09-30T01:13:17.973Z,23.10
2022-09-30T01:16:07.875Z,22.40
2022-09-30T01:18:53.535Z,23.33
2022-09-30T01:22:01.282Z,23.30
2022-09-30T01:24:40.812Z,22.90
2022-09-30T01:27:36.941Z,22.30
2022-09-30T01:30:15.955Z,21.80
2022-09-30T01:33:40.620Z,21.77
2022-09-30T01:36:36.497Z,22.67
2022-09-30T01:39:25.122Z,21.57
2022-09-30T01:42:42.225Z,22.33
2022-09-30T01:45:33.935Z,19.83
2022-09-30T01:48:22.716Z,20.60
2022-09-30T01:51:08.610Z,18.60
2022-09-30T01:53:56.415Z,18.33
2022-09-30T01:56:38.162Z,19.07
2022-09-30T01:59:33.717Z,18.43
2022-09-30T02:02:15.347Z,18.67
2022-09-30T02:05:16.292Z,19.50
2022-09-30T02:07:50.074Z,18.07
2022-09-30T02:10:30.043Z,17.80
2022-09-30T02:13:10.771Z,18.63
2022-09-30T02:15:48.957Z,19.07
2022-09-30T02:18:37.665Z,17.67
2022-09-30T02:21:07.464Z,18.57
2022-09-30T02:23:42.625Z,16.97
2022-09-30T02:26:18.494Z,17.93
2022-09-30T02:28:53.438Z,18.20
2022-09-30T02:31:24.412Z,18.00
2022-09-30T02:33:57.545Z,17.87
2022-09-30T02:36:32.764Z,17.37
2022-09-30T02:39:35.578Z,17.43
2022-09-30T02:42:20.547Z,17.20
2022-09-30T02:44:49.968Z,17.07
2022-09-30T02:47:40.572Z,18.13
2022-09-30T02:50:35.196Z,17.93
2022-09-30T02:53:28.145Z,19.07
2022-09-30T02:56:16.215Z,18.33
2022-09-30T02:58:45.357Z,18.13
2022-09-30T03:01:17.025Z,17.57
2022-09-30T03:03:58.509Z,18.03
2022-09-30T03:06:25.505Z,17.63
2022-09-30T03:08:53.238Z,18.00
2022-09-30T03:11:24.622Z,17.00
2022-09-30T03:14:34.776Z,17.53
2022-09-30T03:17:26.165Z,17.10
2022-09-30T03:20:10.523Z,18.07
2022-09-30T03:23:19.767Z,16.60
2022-09-30T03:26:30.466Z,17.17
2022-09-30T03:29:17.489Z,15.87
2022-09-30T03:32:23.248Z,17.03
2022-09-30T03:35:21.357Z,16.60
2022-09-30T03:38:10.337Z,17.37
2022-09-30T03:41:16.062Z,16.57
2022-09-30T03:44:15.072Z,16.67
2022-09-30T03:47:01.273Z,16.73
2022-09-30T03:49:36.116Z,16.23
2022-09-30T03:52:08.238Z,16.43
2022-09-30T03:54:45.199Z,16.67
2022-09-30T03:57:12.070Z,17.17
2022-09-30T03:59:38.957Z,16.13
2022-09-30T04:02:07.148Z,17.13
2022-09-30T04:04:34.151Z,16.77
2022-09-30T04:07:01.098Z,17.20
2022-09-30T04:09:28.071Z,17.63
2022-09-30T04:11:54.991Z,18.53
2022-09-30T04:14:21.893Z,19.50
2022-09-30T04:16:53.207Z,18.10
2022-09-30T04:19:20.877Z,18.03
2022-09-30T04:21:47.938Z,18.03
2022-09-30T04:24:14.859Z,17.47
2022-09-30T04:26:41.827Z,18.07
2022-09-30T04:29:08.764Z,19.60
2022-09-30T04:31:35.674Z,18.23
2022-09-30T04:34:02.707Z,18.57
2022-09-30T04:36:29.609Z,17.67
2022-09-30T04:38:56.515Z,17.77
2022-09-30T04:41:23.514Z,19.20
2022-09-30T04:43:50.443Z,17.57
2022-09-30T04:46:21.204Z,17.33
2022-09-30T04:48:48.862Z,18.13
2022-09-30T04:51:19.467Z,17.13
2022-09-30T04:53:47.683Z,17.87
2022-09-30T04:56:19.414Z,19.97
2022-09-30T04:58:46.835Z,19.37
2022-09-30T05:01:16.037Z,18.03
2022-09-30T05:03:43.989Z,16.90
2022-09-30T05:06:11.843Z,16.23
2022-09-30T05:08:41.771Z,16.97
2022-09-30T05:11:20.552Z,17.77
2022-09-30T05:13:48.975Z,16.20
2022-09-30T05:16:17.063Z,15.50
2022-09-30T05:18:46.307Z,15.93
2022-09-30T05:21:17.546Z,15.50
2022-09-30T05:23:44.964Z,15.40
2022-09-30T05:26:12.744Z,15.50
2022-09-30T05:28:41.779Z,15.80
2022-09-30T05:31:09.049Z,15.77
2022-09-30T05:33:36.284Z,16.80
2022-09-30T05:36:07.176Z,16.23
2022-09-30T05:38:35.381Z,16.47
2022-09-30T05:41:11.514Z,16.20
2022-09-30T05:43:40.705Z,15.80
2022-09-30T05:46:08.052Z,15.70
2022-09-30T05:48:35.262Z,16.27
2022-09-30T05:51:02.400Z,15.20
2022-09-30T05:53:32.218Z,16.00
2022-09-30T05:55:59.704Z,18.60
2022-09-30T05:58:27.548Z,19.87
2022-09-30T06:00:54.531Z,22.13
2022-09-30T06:03:21.445Z,22.27
2022-09-30T06:05:48.939Z,19.30
2022-09-30T06:08:16.114Z,18.83
2022-09-30T06:10:44.882Z,18.63
2022-09-30T06:13:12.152Z,19.03
2022-09-30T06:15:39.693Z,17.77
2022-09-30T06:18:07.979Z,18.93
2022-09-30T06:20:34.918Z,18.47
2022-09-30T06:23:02.446Z,18.30
2022-09-30T06:25:30.781Z,17.93
2022-09-30T06:27:58.182Z,18.47
2022-09-30T06:30:25.279Z,18.43
2022-09-30T06:32:54.084Z,18.83
2022-09-30T06:35:24.050Z,19.77
2022-09-30T06:37:52.212Z,26.13
2022-09-30T06:40:21.283Z,29.67
2022-09-30T06:42:49.670Z,33.57
2022-09-30T06:45:30.293Z,37.13
2022-09-30T06:48:05.423Z,36.50
2022-09-30T06:50:33.202Z,34.80
2022-09-30T06:53:02.236Z,33.47
2022-09-30T06:55:30.279Z,28.07
2022-09-30T06:57:57.987Z,24.97
2022-09-30T07:00:27.856Z,21.33
2022-09-30T07:02:56.726Z,20.43
2022-09-30T07:05:25.779Z,19.57
2022-09-30T07:07:54.153Z,19.97
2022-09-30T07:10:21.520Z,20.57
2022-09-30T07:12:52.402Z,19.57
2022-09-30T07:15:23.400Z,20.03
2022-09-30T07:17:56.811Z,19.60
2022-09-30T07:20:24.788Z,20.13
2022-09-30T07:22:51.850Z,19.70
2022-09-30T07:25:19.814Z,18.77
2022-09-30T07:27:46.884Z,19.53
2022-09-30T07:30:21.533Z,19.50
2022-09-30T07:32:51.565Z,18.37
2022-09-30T07:35:19.318Z,18.50
2022-09-30T07:37:46.220Z,18.70
2022-09-30T07:40:13.114Z,19.17
2022-09-30T07:42:45.596Z,18.43
2022-09-30T07:45:17.063Z,18.43
2022-09-30T07:47:44.161Z,18.87
2022-09-30T07:50:15.524Z,18.20
2022-09-30T07:52:42.661Z,19.40
2022-09-30T07:55:09.535Z,18.23
2022-09-30T07:57:36.441Z,18.50
2022-09-30T08:00:22.980Z,18.00
2022-09-30T08:02:51.289Z,18.07
2022-09-30T08:05:18.172Z,17.20
2022-09-30T08:07:45.118Z,18.73
2022-09-30T08:10:12.133Z,18.07
2022-09-30T08:12:39.046Z,17.33
2022-09-30T08:15:09.667Z,17.10
2022-09-30T08:17:36.561Z,18.17
2022-09-30T08:20:04.140Z,17.60
2022-09-30T08:22:31.049Z,16.07
2022-09-30T08:24:57.927Z,16.70
2022-09-30T08:27:24.910Z,17.60
2022-09-30T08:29:57.320Z,16.73
2022-09-30T08:32:26.205Z,15.63
2022-09-30T08:34:53.161Z,17.02
2022-09-30T08:37:20.086Z,17.03
2022-09-30T08:39:48.529Z,16.60
2022-09-30T08:42:38.975Z,16.57
2022-09-30T08:45:30.589Z,16.50
2022-09-30T08:48:36.058Z,16.40
2022-09-30T08:51:20.969Z,15.80
2022-09-30T08:53:48.647Z,15.50
2022-09-30T08:56:28.442Z,15.37
2022-09-30T08:59:44.765Z,14.98
2022-09-30T09:02:31.058Z,15.10
2022-09-30T09:05:01.234Z,15.73
2022-09-30T09:08:02.596Z,14.45
2022-09-30T09:10:41.459Z,14.88
2022-09-30T09:13:58.118Z,15.30
2022-09-30T09:16:37.961Z,15.05
2022-09-30T09:19:11.771Z,15.35
2022-09-30T09:21:42.520Z,14.73
2022-09-30T09:24:16.595Z,14.60
2022-09-30T09:26:43.528Z,13.80
2022-09-30T09:29:46.260Z,13.95
2022-09-30T09:32:19.447Z,15.23
2022-09-30T09:34:54.634Z,14.95
2022-09-30T09:38:09.997Z,14.07
2022-09-30T09:41:05.189Z,13.35
2022-09-30T09:43:51.449Z,13.90
2022-09-30T09:46:48.362Z,13.68
2022-09-30T09:49:20.805Z,13.38
2022-09-30T09:52:14.216Z,13.35
2022-09-30T09:54:56.571Z,11.85
2022-09-30T09:57:27.848Z,12.05
2022-09-30T10:00:32.196Z,12.93
2022-09-30T10:03:25.030Z,11.93
2022-09-30T10:06:12.813Z,12.88
2022-09-30T10:08:54.935Z,11.57
2022-09-30T10:11:27.612Z,11.70
2022-09-30T10:13:59.896Z,11.55
2022-09-30T10:16:32.986Z,11.40
2022-09-30T10:19:00.372Z,11.38
2022-09-30T10:21:29.109Z,11.40
2022-09-30T10:23:57.725Z,10.80
2022-09-30T10:26:29.529Z,11.05
2022-09-30T10:29:02.383Z,10.32
2022-09-30T10:31:37.929Z,10.93
2022-09-30T10:34:29.596Z,10.75
2022-09-30T10:36:59.800Z,11.25
2022-09-30T10:39:34.660Z,10.52
2022-09-30T10:42:26.312Z,10.05
2022-09-30T10:45:03.161Z,10.98
2022-09-30T10:47:36.261Z,10.00
2022-09-30T10:50:12.491Z,10.88
2022-09-30T10:52:58.789Z,10.25
2022-09-30T10:55:31.542Z,10.57
2022-09-30T10:58:25.497Z,10.30
2022-09-30T11:01:02.616Z,10.05
2022-09-30T11:03:40.655Z,11.43
2022-09-30T11:06:11.930Z,10.25
2022-09-30T11:08:58.053Z,9.98
2022-09-30T11:11:35.290Z,10.20
2022-09-30T11:14:27.190Z,9.60
2022-09-30T11:17:39.560Z,10.88
2022-09-30T11:20:14.395Z,9.63
2022-09-30T11:22:57.105Z,9.75
2022-09-30T11:25:44.561Z,9.15
2022-09-30T11:28:35.621Z,9.48
2022-09-30T11:31:31.640Z,8.95
2022-09-30T11:34:13.425Z,9.07
2022-09-30T11:37:09.071Z,8.02
2022-09-30T11:40:08.486Z,8.10
2022-09-30T11:42:49.091Z,8.50
2022-09-30T11:45:46.257Z,7.15
2022-09-30T11:48:43.990Z,7.18
2022-09-30T11:51:40.177Z,7.93
2022-09-30T11:55:15.148Z,7.00
2022-09-30T11:58:12.062Z,6.63
2022-09-30T12:00:51.294Z,5.88
2022-09-30T12:03:40.751Z,6.28
2022-09-30T12:06:29.259Z,6.35
2022-09-30T12:09:04.835Z,5.95
2022-09-30T12:11:47.094Z,6.13
2022-09-30T12:14:55.629Z,5.63
2022-09-30T12:17:55.081Z,6.13
2022-09-30T12:20:41.888Z,5.63
2022-09-30T12:23:25.029Z,6.18
2022-09-30T12:25:59.135Z,5.78
2022-09-30T12:28:53.511Z,6.00
2022-09-30T12:32:03.646Z,6.72
2022-09-30T12:34:52.555Z,6.13
2022-09-30T12:37:46.681Z,7.47
2022-09-30T12:41:05.100Z,5.85
2022-09-30T12:43:54.502Z,6.47
2022-09-30T12:46:25.840Z,6.22
2022-09-30T12:49:01.547Z,5.28
2022-09-30T12:51:34.870Z,5.22
2022-09-30T12:54:15.256Z,6.07
2022-09-30T12:56:44.979Z,5.00
2022-09-30T12:59:14.063Z,5.22
2022-09-30T13:01:42.476Z,5.25
2022-09-30T13:04:16.603Z,4.95
2022-09-30T13:06:49.195Z,6.40
2022-09-30T13:09:31.660Z,6.07
2022-09-30T13:11:58.406Z,5.22
2022-09-30T13:14:41.272Z,4.78
2022-09-30T13:17:08.035Z,5.13
2022-09-30T13:19:48.276Z,5.10
2022-09-30T13:22:21.094Z,4.57
2022-09-30T13:25:05.809Z,4.68
2022-09-30T13:27:47.697Z,4.50
2022-09-30T13:30:17.226Z,4.28
2022-09-30T13:32:57.682Z,4.07
2022-09-30T13:35:51.195Z,4.25
2022-09-30T13:38:21.794Z,5.65
2022-09-30T13:41:03.626Z,6.47
2022-09-30T13:43:33.819Z,7.63
2022-09-30T13:46:11.914Z,6.85
2022-09-30T13:48:43.547Z,6.88
2022-09-30T13:51:16.625Z,5.97
2022-09-30T13:53:51.172Z,5.07
2022-09-30T13:56:28.190Z,5.03
2022-09-30T13:59:39.345Z,4.32
2022-09-30T14:02:46.867Z,3.80
2022-09-30T14:06:03.166Z,3.20
2022-09-30T14:09:07.365Z,3.60
2022-09-30T14:12:34.356Z,3.63
2022-09-30T14:15:38.053Z,3.78
2022-09-30T14:18:40.303Z,3.92
2022-09-30T14:21:37.537Z,4.50
2022-09-30T14:24:17.599Z,5.00
2022-09-30T14:27:16.749Z,4.50
2022-09-30T14:30:16.672Z,4.85
2022-09-30T14:32:50.706Z,4.95
2022-09-30T14:35:22.978Z,5.18
2022-09-30T14:38:08.793Z,5.45
2022-09-30T14:40:42.452Z,4.75
2022-09-30T14:43:18.371Z,4.95
2022-09-30T14:45:51.883Z,4.60
2022-09-30T14:48:33.535Z,4.90
2022-09-30T14:51:08.702Z,5.22
2022-09-30T14:53:44.495Z,5.30
2022-09-30T14:56:30.916Z,5.05
2022-09-30T14:58:59.890Z,5.20
2022-09-30T15:01:34.533Z,5.35
2022-09-30T15:04:18.547Z,6.18
2022-09-30T15:06:50.370Z,6.13
2022-09-30T15:09:46.247Z,6.07
2022-09-30T15:12:22.619Z,6.57
2022-09-30T15:14:54.916Z,6.15
2022-09-30T15:17:37.277Z,6.00
2022-09-30T15:20:24.124Z,6.28
2022-09-30T15:22:55.232Z,7.25
2022-09-30T15:25:22.834Z,7.72
2022-09-30T15:27:50.674Z,8.23
2022-09-30T15:30:18.286Z,9.35
2022-09-30T15:32:46.482Z,7.68
2022-09-30T15:35:21.889Z,7.07
2022-09-30T15:37:50.212Z,7.13
2022-09-30T15:40:40.044Z,8.63
2022-09-30T15:43:11.310Z,9.43
2022-09-30T15:45:41.407Z,8.98
2022-09-30T15:48:35.770Z,8.65
2022-09-30T15:51:31.532Z,8.55
2022-09-30T15:54:37.797Z,9.38
2022-09-30T15:57:47.384Z,9.18
2022-09-30T16:00:39.273Z,10.02
2022-09-30T16:03:30.540Z,10.45
2022-09-30T16:06:09.977Z,10.18
2022-09-30T16:08:44.508Z,9.57
2022-09-30T16:11:23.588Z,9.15
2022-09-30T16:13:51.337Z,11.15
2022-09-30T16:16:26.942Z,11.57
2022-09-30T16:18:57.238Z,12.25
2022-09-30T16:21:50.666Z,13.25
2022-09-30T16:24:37.785Z,11.40
2022-09-30T16:27:30.434Z,12.57
2022-09-30T16:29:58.873Z,14.02
2022-09-30T16:32:26.823Z,14.25
2022-09-30T16:34:53.839Z,13.35
2022-09-30T16:37:21.250Z,12.63
2022-09-30T16:39:48.400Z,13.65
2022-09-30T16:42:17.814Z,11.30
2022-09-30T16:44:45.298Z,11.70
2022-09-30T16:47:15.901Z,11.88
2022-09-30T16:49:44.486Z,11.27
2022-09-30T16:52:11.830Z,12.27
2022-09-30T16:54:39.195Z,12.40
2022-09-30T16:57:06.182Z,15.13
2022-09-30T16:59:33.396Z,15.25
2022-09-30T17:02:01.210Z,16.23
2022-09-30T17:04:28.466Z,16.77
2022-09-30T17:06:58.990Z,17.48
2022-09-30T17:09:26.145Z,18.80
2022-09-30T17:11:53.401Z,20.00
2022-09-30T17:14:20.443Z,19.25
2022-09-30T17:16:47.697Z,19.48
2022-09-30T17:19:14.627Z,21.13
2022-09-30T17:21:41.582Z,24.52
2022-09-30T17:24:08.606Z,22.48
2022-09-30T17:26:35.745Z,28.85
2022-09-30T17:29:21.060Z,33.20
2022-09-30T17:31:48.421Z,41.33
2022-09-30T17:34:15.417Z,36.78
2022-09-30T17:36:42.312Z,25.95
2022-09-30T17:39:11.345Z,23.25
2022-09-30T17:41:56.667Z,22.83
2022-09-30T17:44:24.527Z,23.20
2022-09-30T17:47:00.331Z,22.05
2022-09-30T17:49:37.025Z,21.92
2022-09-30T17:52:04.422Z,19.05
2022-09-30T17:54:33.082Z,19.88
2022-09-30T17:56:59.986Z,19.35
2022-09-30T17:59:28.374Z,19.77
2022-09-30T18:01:56.772Z,17.42
2022-09-30T18:04:26.141Z,15.25
2022-09-30T18:06:54.449Z,13.73
2022-09-30T18:09:22.407Z,12.50
2022-09-30T18:11:49.566Z,12.75
2022-09-30T18:14:16.542Z,11.43
2022-09-30T18:16:43.597Z,12.35
2022-09-30T18:19:10.547Z,11.90
2022-09-30T18:21:38.315Z,12.45
2022-09-30T18:24:07.025Z,19.95
2022-09-30T18:26:35.936Z,23.20
2022-09-30T18:29:03.806Z,20.92
2022-09-30T18:31:38.208Z,25.58
2022-09-30T18:34:06.466Z,25.42
2022-09-30T18:36:33.433Z,24.73
2022-09-30T18:39:02.223Z,23.00
2022-09-30T18:41:31.879Z,19.27
2022-09-30T18:44:02.874Z,17.52
2022-09-30T18:46:31.405Z,17.88
2022-09-30T18:48:58.457Z,16.55
2022-09-30T18:51:25.467Z,15.02
2022-09-30T18:53:56.077Z,14.48
2022-09-30T18:56:27.054Z,14.10
2022-09-30T18:58:53.977Z,13.27
2022-09-30T19:01:21.121Z,13.05
2022-09-30T19:03:48.075Z,12.48
2022-09-30T19:06:15.835Z,11.55
2022-09-30T19:08:43.504Z,12.25
2022-09-30T19:11:16.105Z,11.85
2022-09-30T19:13:47.165Z,11.30
2022-09-30T19:16:18.241Z,12.55
2022-09-30T19:18:46.003Z,15.25
2022-09-30T19:21:17.798Z,21.27
2022-09-30T19:23:44.699Z,21.52
2022-09-30T19:26:12.904Z,18.60
2022-09-30T19:28:39.823Z,15.77
2022-09-30T19:31:10.438Z,17.50
2022-09-30T19:33:42.996Z,20.17
2022-09-30T19:36:17.115Z,22.95
2022-09-30T19:38:46.359Z,21.73
2022-09-30T19:41:18.325Z,21.77
2022-09-30T19:43:49.553Z,21.33
2022-09-30T19:46:17.174Z,19.35
2022-09-30T19:48:45.207Z,17.33
2022-09-30T19:51:14.500Z,17.52
2022-09-30T19:53:50.285Z,20.35
2022-09-30T19:56:24.442Z,22.08
2022-09-30T19:58:58.910Z,22.83
2022-09-30T20:01:30.622Z,21.65
2022-09-30T20:04:00.232Z,20.52
2022-09-30T20:06:28.187Z,22.33
2022-09-30T20:08:59.105Z,26.48
2022-09-30T20:11:30.004Z,27.13
2022-09-30T20:14:15.973Z,26.17
2022-09-30T20:16:43.747Z,22.13
2022-09-30T20:19:11.921Z,18.83
2022-09-30T20:21:41.755Z,17.55
2022-09-30T20:24:11.308Z,17.88
2022-09-30T20:26:39.359Z,16.90
2022-09-30T20:29:09.938Z,15.65
2022-09-30T20:31:38.668Z,16.10
2022-09-30T20:34:05.650Z,16.30
2022-09-30T20:36:32.676Z,15.07
2022-09-30T20:39:02.645Z,15.65
2022-09-30T20:41:38.264Z,14.98
2022-09-30T20:44:13.855Z,15.43
2022-09-30T20:46:41.678Z,16.08
2022-09-30T20:49:09.384Z,17.27
2022-09-30T20:51:36.385Z,18.33
2022-09-30T20:54:03.613Z,17.50
2022-09-30T20:56:49.633Z,16.48
2022-09-30T20:59:17.906Z,18.40
2022-09-30T21:01:44.864Z,18.92
2022-09-30T21:04:11.783Z,18.25
2022-09-30T21:06:38.659Z,16.23
2022-09-30T21:09:05.683Z,15.38
2022-09-30T21:11:33.411Z,14.63
2022-09-30T21:14:00.721Z,15.85
2022-09-30T21:16:29.594Z,15.35
2022-09-30T21:18:56.778Z,16.05
2022-09-30T21:21:25.761Z,15.75
2022-09-30T21:23:58.700Z,14.88
2022-09-30T21:26:26.629Z,16.02
2022-09-30T21:28:54.015Z,17.63
2022-09-30T21:31:27.352Z,18.45
2022-09-30T21:33:58.465Z,18.45
2022-09-30T21:36:27.692Z,17.35
2022-09-30T21:38:55.011Z,19.25
2022-09-30T21:41:22.824Z,19.00
2022-09-30T21:43:49.812Z,18.17
2022-09-30T21:46:18.554Z,17.40
2022-09-30T21:48:46.153Z,18.52
2022-09-30T21:51:13.869Z,17.83
2022-09-30T21:53:41.420Z,18.98
2022-09-30T21:56:11.564Z,20.83
2022-09-30T21:58:39.103Z,19.23
2022-09-30T22:01:07.213Z,17.48
2022-09-30T22:03:37.886Z,17.60
2022-09-30T22:06:09.260Z,16.60
2022-09-30T22:08:40.727Z,16.95
2022-09-30T22:11:16.155Z,17.50
2022-09-30T22:13:45.415Z,17.17
2022-09-30T22:16:17.014Z,17.50
2022-09-30T22:18:44.091Z,21.17
2022-09-30T22:21:14.687Z,22.98
2022-09-30T22:23:42.838Z,22.95
2022-09-30T22:26:13.129Z,24.77
2022-09-30T22:28:40.405Z,22.65
2022-09-30T22:31:20.445Z,20.15
2022-09-30T22:34:12.503Z,20.13
2022-09-30T22:36:58.160Z,20.20
2022-09-30T22:39:25.787Z,17.70
2022-09-30T22:41:54.432Z,18.63
2022-09-30T22:44:48.043Z,17.55
2022-09-30T22:47:14.991Z,16.90
2022-09-30T22:49:41.938Z,17.55
2022-09-30T22:52:09.350Z,17.25
2022-09-30T22:54:37.190Z,16.85
2022-09-30T22:57:05.602Z,18.58
2022-09-30T22:59:32.570Z,16.75
2022-09-30T23:01:59.505Z,17.50
2022-09-30T23:04:27.247Z,18.33
2022-09-30T23:06:57.851Z,20.00
2022-09-30T23:09:25.241Z,19.63
2022-09-30T23:11:54.523Z,17.88
2022-09-30T23:14:24.751Z,17.50
2022-09-30T23:16:51.832Z,16.50
2022-09-30T23:19:19.772Z,15.13
2022-09-30T23:21:46.926Z,15.68
2022-09-30T23:24:14.446Z,14.88
2022-09-30T23:26:41.427Z,15.98
2022-09-30T23:29:12.692Z,14.88
2022-09-30T23:31:39.958Z,15.38
2022-09-30T23:34:07.775Z,15.63
2022-09-30T23:36:37.239Z,16.17
2022-09-30T23:39:12.430Z,16.50
2022-09-30T23:41:40.084Z,16.65
2022-09-30T23:44:10.025Z,16.85
2022-09-30T23:46:37.112Z,16.20
2022-09-30T23:49:04.023Z,16.25
2022-09-30T23:51:34.410Z,15.68
2022-09-30T23:54:02.458Z,16.80
2022-09-30T23:56:29.595Z,17.20
2022-09-30T23:58:57.481Z,16.55
